Terminal Aerodrome Forecast
Issued by NWS Greer, SC

Home | Current Version | Previous Version | Text Only | Print | Product List | Glossary On
Versions: 1 2 3 4 5 6 7 8 9 10 11 12 13 14 15 16 17 18 19 20 21
000
FTUS42 KGSP 030749 CCB
TAFGSP
TAF COR
KGSP 030749Z 0308/0406 22007KT P6SM VCSH BKN004 BKN120
      TEMPO 0309/0313 6SM -SHRA BKN007 OVC100
     FM031400 23012KT 6SM -SHRA BKN035 OVC250
     FM032000 24016G24KT 6SM -SHRA OVC060 PROB30 0320/0324 4SM TSRA
      OVC040CB
     FM040000 25014G22KT P6SM BKN120
     FM040300 24010KT P6SM BKN120=

USA.gov is the U.S. government's official web portal to all federal, state and local government web resources and services.